Bay Acres, Arizona
Current Conditions -  °F | °C
As of 6:56 AM on Sunday 25 Jan 2015 (Local Time) from KDUG Reporting Station
Clear Clear  
Wind Chill: 26°   Ceiling: Unl
Heat Index: 32°   Visibility: 10mi
Dew Point: 16°   Wind: 6mph
Humidity: 52%   Direction: 350°N
Pressure: 30.18"   Gusts: NA
Location:  31.4518°N, 109.329°W
Report Text: KDUG 251356Z AUTO 35005KT 10SM CLR 00/M09 A3018 RMK AO2 SLP208 T00001089
Loading
Personal Weather Stations






























Interactive Weather Map New forecast layout! Learn more

10-Day Weather Forecast

Advertisements
Track Severe Weather on mobile